BNL740 HLLB-OMDB
Flight info
| Callsign | BNL740 |
|---|---|
| Flight time | 4h 23m |
| Altitude | 37000 |
| Route | MKILY1C MKILY A411 LOSUL M855 MMA L613 KIVIL N710 TAKRI M720 FYM M872 WEJ L604 GAS L308 DAROR P559 VUTEB |
| Aircraft | A320/M-SDE3FGHIRWY/LB1 |
Departure
| Time | 2026-05-07 15:33 |
|---|---|
| Airport | Benina International Airport (HLLB) |
Arrival
| Time | 2026-05-07 19:57 |
|---|---|
| Airport | Dubai International Airport (OMDB) |
| Time | Latitude | Longitude | Altitude | Speed | Heading |
|---|---|---|---|---|---|
| 2026-05-07 15:10 | 32.08666 | 20.26741 | 409 ft | 0 kts | 209° |
| 2026-05-07 15:27 | 32.08665 | 20.26741 | 414 ft | 1 kts | 209° |
| 2026-05-07 15:27 | 32.08668 | 20.26710 | 410 ft | 8 kts | 337° |
| 2026-05-07 15:27 | 32.08722 | 20.26742 | 411 ft | 10 kts | 35° |
| 2026-05-07 15:27 | 32.08742 | 20.26839 | 411 ft | 14 kts | 88° |
| 2026-05-07 15:28 | 32.08750 | 20.26962 | 411 ft | 15 kts | 85° |
| 2026-05-07 15:28 | 32.08803 | 20.27038 | 411 ft | 14 kts | 340° |
| 2026-05-07 15:28 | 32.08894 | 20.26974 | 411 ft | 18 kts | 329° |
| 2026-05-07 15:28 | 32.09024 | 20.26887 | 411 ft | 25 kts | 330° |
| 2026-05-07 15:29 | 32.09190 | 20.26775 | 411 ft | 30 kts | 330° |
| 2026-05-07 15:29 | 32.09365 | 20.26658 | 412 ft | 28 kts | 330° |
| 2026-05-07 15:29 | 32.09537 | 20.26541 | 412 ft | 30 kts | 330° |
| 2026-05-07 15:29 | 32.09721 | 20.26419 | 412 ft | 31 kts | 330° |
| 2026-05-07 15:30 | 32.09917 | 20.26286 | 411 ft | 34 kts | 330° |
| 2026-05-07 15:30 | 32.10128 | 20.26144 | 412 ft | 36 kts | 330° |
| 2026-05-07 15:30 | 32.10353 | 20.25991 | 412 ft | 38 kts | 330° |
| 2026-05-07 15:30 | 32.10591 | 20.25831 | 412 ft | 40 kts | 330° |
| 2026-05-07 15:31 | 32.10809 | 20.25684 | 411 ft | 27 kts | 330° |
| 2026-05-07 15:31 | 32.10907 | 20.25697 | 411 ft | 15 kts | 63° |
| 2026-05-07 15:31 | 32.10958 | 20.25807 | 409 ft | 15 kts | 61° |
| 2026-05-07 15:31 | 32.10988 | 20.25890 | 409 ft | 7 kts | 108° |
| 2026-05-07 15:32 | 32.10946 | 20.25919 | 409 ft | 8 kts | 152° |
| 2026-05-07 15:32 | 32.10862 | 20.25973 | 411 ft | 30 kts | 151° |
| 2026-05-07 15:32 | 32.10473 | 20.26234 | 411 ft | 96 kts | 150° |
| 2026-05-07 15:32 | 32.09730 | 20.26734 | 414 ft | 148 kts | 150° |
| 2026-05-07 15:33 | 32.08792 | 20.27347 | 903 ft | 152 kts | 153° |
| 2026-05-07 15:33 | 32.07861 | 20.27934 | 1550 ft | 150 kts | 152° |
| 2026-05-07 15:33 | 32.06896 | 20.28545 | 1889 ft | 167 kts | 150° |
| 2026-05-07 15:33 | 32.05878 | 20.29351 | 2207 ft | 187 kts | 139° |
| 2026-05-07 15:34 | 32.04956 | 20.30575 | 2464 ft | 213 kts | 125° |
| 2026-05-07 15:34 | 32.04285 | 20.32248 | 2842 ft | 239 kts | 109° |
| 2026-05-07 15:34 | 32.04069 | 20.34265 | 3381 ft | 259 kts | 91° |
| 2026-05-07 15:34 | 32.04453 | 20.36380 | 4061 ft | 271 kts | 70° |
| 2026-05-07 15:35 | 32.05233 | 20.38438 | 4721 ft | 280 kts | 68° |
| 2026-05-07 15:35 | 32.06038 | 20.40566 | 5302 ft | 289 kts | 69° |
| 2026-05-07 15:35 | 32.06846 | 20.42744 | 5879 ft | 296 kts | 67° |
| 2026-05-07 15:35 | 32.07660 | 20.44950 | 6730 ft | 293 kts | 66° |
| 2026-05-07 15:36 | 32.08486 | 20.47190 | 7295 ft | 301 kts | 64° |
| 2026-05-07 15:36 | 32.09328 | 20.49469 | 7963 ft | 304 kts | 66° |
| 2026-05-07 15:36 | 32.10173 | 20.51769 | 8692 ft | 306 kts | 66° |
| 2026-05-07 15:36 | 32.10781 | 20.54196 | 9342 ft | 312 kts | 80° |
| 2026-05-07 15:37 | 32.10857 | 20.56776 | 9967 ft | 318 kts | 95° |
| 2026-05-07 15:37 | 32.10630 | 20.59417 | 10305 ft | 334 kts | 95° |
| 2026-05-07 15:37 | 32.10395 | 20.62238 | 10445 ft | 356 kts | 95° |
| 2026-05-07 15:37 | 32.10152 | 20.65227 | 10701 ft | 372 kts | 95° |
| 2026-05-07 15:38 | 32.09907 | 20.68294 | 11259 ft | 378 kts | 95° |
| 2026-05-07 15:38 | 32.09664 | 20.71390 | 11879 ft | 381 kts | 95° |
| 2026-05-07 15:38 | 32.09420 | 20.74511 | 12527 ft | 384 kts | 94° |
| 2026-05-07 15:38 | 32.09189 | 20.77665 | 13167 ft | 387 kts | 93° |
| 2026-05-07 15:39 | 32.08981 | 20.80842 | 13792 ft | 391 kts | 93° |
| 2026-05-07 15:39 | 32.08783 | 20.84047 | 14375 ft | 393 kts | 94° |
| 2026-05-07 15:39 | 32.08591 | 20.87240 | 14894 ft | 397 kts | 93° |
| 2026-05-07 15:39 | 32.08394 | 20.90504 | 15411 ft | 401 kts | 93° |
| 2026-05-07 15:40 | 32.08190 | 20.93799 | 15918 ft | 405 kts | 92° |
| 2026-05-07 15:40 | 32.07975 | 20.97137 | 16404 ft | 410 kts | 92° |
| 2026-05-07 15:40 | 32.07754 | 21.00508 | 16902 ft | 415 kts | 92° |
| 2026-05-07 15:40 | 32.07531 | 21.03918 | 17385 ft | 419 kts | 92° |
| 2026-05-07 15:41 | 32.07303 | 21.07358 | 17883 ft | 423 kts | 92° |
| 2026-05-07 15:41 | 32.07069 | 21.10837 | 18356 ft | 428 kts | 91° |
| 2026-05-07 15:41 | 32.06832 | 21.14347 | 18781 ft | 432 kts | 91° |
| 2026-05-07 15:41 | 32.06593 | 21.17890 | 19211 ft | 435 kts | 91° |
| 2026-05-07 15:42 | 32.06352 | 21.21464 | 19649 ft | 439 kts | 91° |
| 2026-05-07 15:42 | 32.06109 | 21.25065 | 20082 ft | 443 kts | 91° |
| 2026-05-07 15:42 | 32.05863 | 21.28701 | 20507 ft | 447 kts | 91° |
| 2026-05-07 15:42 | 32.05615 | 21.32366 | 20941 ft | 450 kts | 91° |
| 2026-05-07 15:43 | 32.05365 | 21.36069 | 21367 ft | 454 kts | 91° |
| 2026-05-07 15:43 | 32.05112 | 21.39793 | 21781 ft | 457 kts | 91° |
| 2026-05-07 15:43 | 32.04856 | 21.43542 | 22190 ft | 461 kts | 91° |
| 2026-05-07 15:43 | 32.04600 | 21.47269 | 22583 ft | 464 kts | 92° |
| 2026-05-07 15:44 | 32.04335 | 21.51080 | 22975 ft | 467 kts | 92° |
| 2026-05-07 15:44 | 32.04064 | 21.54913 | 23347 ft | 471 kts | 92° |
| 2026-05-07 15:44 | 32.03792 | 21.58770 | 23710 ft | 474 kts | 92° |
| 2026-05-07 15:44 | 32.03519 | 21.62649 | 24052 ft | 476 kts | 92° |
| 2026-05-07 15:45 | 32.03245 | 21.66542 | 24392 ft | 478 kts | 92° |
| 2026-05-07 15:45 | 32.02968 | 21.70455 | 24719 ft | 480 kts | 92° |
| 2026-05-07 15:45 | 32.02687 | 21.74379 | 25026 ft | 482 kts | 92° |
| 2026-05-07 15:45 | 32.02401 | 21.78324 | 25329 ft | 484 kts | 92° |
| 2026-05-07 15:46 | 32.01828 | 21.86248 | 25993 ft | 486 kts | 91° |
| 2026-05-07 15:46 | 32.01545 | 21.90228 | 26298 ft | 488 kts | 91° |
| 2026-05-07 15:46 | 32.01258 | 21.94218 | 26588 ft | 490 kts | 91° |
| 2026-05-07 15:47 | 32.00969 | 21.98223 | 26882 ft | 492 kts | 91° |
| 2026-05-07 15:47 | 32.00675 | 22.02243 | 27164 ft | 493 kts | 91° |
| 2026-05-07 15:47 | 32.00374 | 22.06281 | 27443 ft | 495 kts | 91° |
| 2026-05-07 15:47 | 32.00074 | 22.10277 | 27706 ft | 497 kts | 91° |
| 2026-05-07 15:48 | 31.99769 | 22.14334 | 27986 ft | 499 kts | 91° |
| 2026-05-07 15:48 | 31.99461 | 22.18415 | 28222 ft | 501 kts | 91° |
| 2026-05-07 15:48 | 31.99154 | 22.22508 | 28465 ft | 503 kts | 91° |
| 2026-05-07 15:48 | 31.98845 | 22.26615 | 28706 ft | 505 kts | 91° |
| 2026-05-07 15:49 | 31.98532 | 22.30742 | 28938 ft | 506 kts | 91° |
| 2026-05-07 15:49 | 31.98218 | 22.34895 | 29168 ft | 508 kts | 91° |
| 2026-05-07 15:49 | 31.97903 | 22.39036 | 29390 ft | 509 kts | 91° |
| 2026-05-07 15:49 | 31.97584 | 22.43204 | 29611 ft | 511 kts | 91° |
| 2026-05-07 15:50 | 31.97265 | 22.47375 | 29829 ft | 512 kts | 91° |
| 2026-05-07 15:50 | 31.96942 | 22.51554 | 30052 ft | 513 kts | 91° |
| 2026-05-07 15:50 | 31.96615 | 22.55745 | 30317 ft | 512 kts | 91° |
| 2026-05-07 15:50 | 31.96401 | 22.58507 | 30482 ft | 511 kts | 91° |
| 2026-05-07 15:51 | 31.96081 | 22.62676 | 30736 ft | 511 kts | 91° |
| 2026-05-07 15:51 | 31.95761 | 22.66835 | 30983 ft | 510 kts | 91° |
| 2026-05-07 15:51 | 31.95334 | 22.72337 | 31312 ft | 509 kts | 91° |
| 2026-05-07 15:51 | 31.95005 | 22.76488 | 31563 ft | 508 kts | 91° |
| 2026-05-07 15:52 | 31.94782 | 22.79286 | 31739 ft | 508 kts | 90° |
| 2026-05-07 15:52 | 31.94456 | 22.83372 | 31959 ft | 508 kts | 90° |
| 2026-05-07 15:52 | 31.94122 | 22.87564 | 32208 ft | 507 kts | 90° |
| 2026-05-07 15:52 | 31.93792 | 22.91691 | 32446 ft | 507 kts | 90° |
| 2026-05-07 15:53 | 31.93463 | 22.95768 | 32689 ft | 506 kts | 90° |
| 2026-05-07 15:53 | 31.93127 | 22.99888 | 32943 ft | 505 kts | 90° |
| 2026-05-07 15:53 | 31.92792 | 23.04005 | 33188 ft | 504 kts | 90° |
| 2026-05-07 15:53 | 31.92457 | 23.08115 | 33432 ft | 504 kts | 90° |
| 2026-05-07 15:54 | 31.92123 | 23.12214 | 33694 ft | 502 kts | 90° |
| 2026-05-07 15:54 | 31.91788 | 23.16291 | 34026 ft | 499 kts | 90° |
| 2026-05-07 15:54 | 31.91454 | 23.20348 | 34284 ft | 497 kts | 90° |
| 2026-05-07 15:54 | 31.91122 | 23.24391 | 34504 ft | 496 kts | 90° |
| 2026-05-07 15:55 | 31.90788 | 23.28431 | 34723 ft | 495 kts | 90° |
| 2026-05-07 15:55 | 31.90454 | 23.32457 | 34908 ft | 495 kts | 90° |
| 2026-05-07 15:55 | 31.90120 | 23.36484 | 35097 ft | 494 kts | 90° |
| 2026-05-07 15:55 | 31.89783 | 23.40516 | 35275 ft | 494 kts | 90° |
| 2026-05-07 15:56 | 31.89446 | 23.44532 | 35457 ft | 493 kts | 90° |
| 2026-05-07 15:56 | 31.89107 | 23.48551 | 35621 ft | 493 kts | 90° |
| 2026-05-07 15:56 | 31.88766 | 23.52563 | 35791 ft | 492 kts | 90° |
| 2026-05-07 15:56 | 31.88427 | 23.56523 | 35953 ft | 492 kts | 90° |
| 2026-05-07 15:57 | 31.88083 | 23.60527 | 36115 ft | 491 kts | 90° |
| 2026-05-07 15:57 | 31.87739 | 23.64522 | 36273 ft | 491 kts | 90° |
| 2026-05-07 15:57 | 31.87396 | 23.68520 | 36426 ft | 490 kts | 90° |
| 2026-05-07 15:57 | 31.87052 | 23.72506 | 36569 ft | 490 kts | 90° |
| 2026-05-07 15:58 | 31.86708 | 23.76487 | 36723 ft | 489 kts | 90° |
| 2026-05-07 15:58 | 31.86365 | 23.80472 | 36853 ft | 489 kts | 90° |
| 2026-05-07 15:58 | 31.86020 | 23.84455 | 37014 ft | 488 kts | 90° |
| 2026-05-07 15:59 | 31.85314 | 23.92403 | 37106 ft | 489 kts | 91° |
| 2026-05-07 15:59 | 31.84366 | 24.00353 | 37106 ft | 492 kts | 94° |
| 2026-05-07 16:00 | 31.83198 | 24.08288 | 37118 ft | 493 kts | 94° |
| 2026-05-07 16:00 | 31.82028 | 24.16270 | 37120 ft | 497 kts | 94° |
| 2026-05-07 16:01 | 31.80918 | 24.24243 | 37121 ft | 497 kts | 93° |
| 2026-05-07 16:01 | 31.79829 | 24.32270 | 37128 ft | 498 kts | 93° |
| 2026-05-07 16:02 | 31.78730 | 24.40309 | 37142 ft | 498 kts | 93° |
| 2026-05-07 16:02 | 31.77605 | 24.48347 | 37129 ft | 499 kts | 93° |
| 2026-05-07 16:03 | 31.76467 | 24.56399 | 37133 ft | 500 kts | 93° |
| 2026-05-07 16:03 | 31.75333 | 24.64459 | 37142 ft | 500 kts | 93° |
| 2026-05-07 16:04 | 31.74201 | 24.72519 | 37137 ft | 500 kts | 93° |
| 2026-05-07 16:04 | 31.73050 | 24.80585 | 37142 ft | 500 kts | 93° |
| 2026-05-07 16:05 | 31.71889 | 24.88646 | 37143 ft | 500 kts | 93° |
| 2026-05-07 16:05 | 31.70729 | 24.96712 | 37142 ft | 500 kts | 93° |
| 2026-05-07 16:06 | 31.69572 | 25.04767 | 37150 ft | 500 kts | 93° |
| 2026-05-07 16:06 | 31.68416 | 25.12778 | 37142 ft | 501 kts | 93° |
| 2026-05-07 16:07 | 31.67336 | 25.20903 | 37146 ft | 500 kts | 91° |
| 2026-05-07 16:07 | 31.66410 | 25.28927 | 37145 ft | 499 kts | 91° |
| 2026-05-07 16:08 | 31.65480 | 25.37002 | 37161 ft | 499 kts | 91° |
| 2026-05-07 16:08 | 31.64502 | 25.45075 | 37148 ft | 500 kts | 91° |
| 2026-05-07 16:09 | 31.63493 | 25.53154 | 37148 ft | 500 kts | 91° |
| 2026-05-07 16:09 | 31.62483 | 25.61240 | 37148 ft | 500 kts | 91° |
| 2026-05-07 16:10 | 31.61484 | 25.69321 | 37160 ft | 500 kts | 91° |
| 2026-05-07 16:10 | 31.60480 | 25.77399 | 37158 ft | 500 kts | 91° |
| 2026-05-07 16:11 | 31.59458 | 25.85479 | 37159 ft | 501 kts | 91° |
| 2026-05-07 16:11 | 31.58434 | 25.93554 | 37158 ft | 500 kts | 91° |
| 2026-05-07 16:12 | 31.57340 | 26.01616 | 37167 ft | 505 kts | 96° |
| 2026-05-07 16:12 | 31.55711 | 26.09577 | 37166 ft | 505 kts | 97° |
| 2026-05-07 16:13 | 31.54058 | 26.17575 | 37164 ft | 505 kts | 97° |
| 2026-05-07 16:13 | 31.52400 | 26.25572 | 37162 ft | 505 kts | 97° |
| 2026-05-07 16:14 | 31.50737 | 26.33576 | 37181 ft | 505 kts | 96° |
| 2026-05-07 16:14 | 31.49076 | 26.41563 | 37169 ft | 504 kts | 96° |
| 2026-05-07 16:15 | 31.47414 | 26.49546 | 37175 ft | 504 kts | 96° |
| 2026-05-07 16:15 | 31.45742 | 26.57521 | 37190 ft | 504 kts | 96° |
| 2026-05-07 16:16 | 31.44066 | 26.65461 | 37187 ft | 504 kts | 96° |
| 2026-05-07 16:16 | 31.42383 | 26.73440 | 37177 ft | 504 kts | 96° |
| 2026-05-07 16:17 | 31.40703 | 26.81418 | 37185 ft | 504 kts | 96° |
| 2026-05-07 16:17 | 31.39004 | 26.89387 | 37196 ft | 505 kts | 96° |
| 2026-05-07 16:18 | 31.37301 | 26.97366 | 37185 ft | 505 kts | 96° |
| 2026-05-07 16:18 | 31.35604 | 27.05334 | 37185 ft | 505 kts | 96° |
| 2026-05-07 16:19 | 31.33888 | 27.13307 | 37183 ft | 506 kts | 98° |
| 2026-05-07 16:19 | 31.31053 | 27.20965 | 37180 ft | 523 kts | 117° |
| 2026-05-07 16:19 | 31.28910 | 27.24374 | 37174 ft | 529 kts | 128° |
| 2026-05-07 16:20 | 31.26302 | 27.27433 | 37163 ft | 532 kts | 138° |
| 2026-05-07 16:20 | 31.20494 | 27.32829 | 37157 ft | 534 kts | 140° |
| 2026-05-07 16:21 | 31.14644 | 27.38218 | 37157 ft | 535 kts | 140° |
| 2026-05-07 16:21 | 31.08795 | 27.43605 | 37154 ft | 535 kts | 140° |
| 2026-05-07 16:22 | 31.03002 | 27.48946 | 37183 ft | 535 kts | 140° |
| 2026-05-07 16:22 | 30.97160 | 27.54317 | 37173 ft | 535 kts | 140° |
| 2026-05-07 16:23 | 30.91305 | 27.59674 | 37168 ft | 535 kts | 140° |
| 2026-05-07 16:23 | 30.85447 | 27.65023 | 37162 ft | 535 kts | 140° |
| 2026-05-07 16:24 | 30.79592 | 27.70376 | 37139 ft | 535 kts | 140° |
| 2026-05-07 16:24 | 30.73742 | 27.75714 | 37147 ft | 534 kts | 140° |
| 2026-05-07 16:25 | 30.67895 | 27.81034 | 37157 ft | 533 kts | 140° |
| 2026-05-07 16:25 | 30.62049 | 27.86346 | 37159 ft | 533 kts | 140° |
| 2026-05-07 16:26 | 30.56239 | 27.91618 | 37147 ft | 533 kts | 140° |
| 2026-05-07 16:26 | 30.50403 | 27.96913 | 37148 ft | 532 kts | 140° |
| 2026-05-07 16:27 | 30.44570 | 28.02195 | 37129 ft | 531 kts | 140° |
| 2026-05-07 16:27 | 30.38747 | 28.07459 | 37147 ft | 530 kts | 140° |
| 2026-05-07 16:28 | 30.32925 | 28.12708 | 37136 ft | 530 kts | 140° |
| 2026-05-07 16:28 | 30.27098 | 28.17950 | 37132 ft | 530 kts | 140° |
| 2026-05-07 16:29 | 30.21269 | 28.23186 | 37126 ft | 530 kts | 140° |
| 2026-05-07 16:29 | 30.15476 | 28.28392 | 37125 ft | 530 kts | 140° |
| 2026-05-07 16:30 | 30.09644 | 28.33624 | 37115 ft | 530 kts | 140° |
| 2026-05-07 16:30 | 30.03802 | 28.38842 | 37119 ft | 531 kts | 140° |
| 2026-05-07 16:31 | 29.97966 | 28.44056 | 37112 ft | 531 kts | 140° |
| 2026-05-07 16:31 | 29.92117 | 28.49279 | 37104 ft | 531 kts | 140° |
| 2026-05-07 16:32 | 29.86269 | 28.54489 | 37108 ft | 531 kts | 140° |
| 2026-05-07 16:32 | 29.80421 | 28.59694 | 37102 ft | 531 kts | 140° |
| 2026-05-07 16:33 | 29.74616 | 28.64840 | 37110 ft | 530 kts | 140° |
| 2026-05-07 16:33 | 29.68772 | 28.70019 | 37109 ft | 530 kts | 140° |
| 2026-05-07 16:34 | 29.63335 | 28.75671 | 37094 ft | 523 kts | 126° |
| 2026-05-07 16:34 | 29.58880 | 28.82242 | 37088 ft | 521 kts | 123° |
| 2026-05-07 16:35 | 29.54438 | 28.88827 | 37086 ft | 521 kts | 123° |
| 2026-05-07 16:35 | 29.49977 | 28.95394 | 37069 ft | 522 kts | 123° |
| 2026-05-07 16:36 | 29.45619 | 29.02025 | 37090 ft | 516 kts | 116° |
| 2026-05-07 16:36 | 29.42711 | 29.09372 | 37088 ft | 498 kts | 97° |
| 2026-05-07 16:37 | 29.41651 | 29.17054 | 37089 ft | 478 kts | 81° |
| 2026-05-07 16:37 | 29.41575 | 29.24606 | 37084 ft | 477 kts | 81° |
| 2026-05-07 16:38 | 29.41484 | 29.32225 | 37092 ft | 478 kts | 81° |
| 2026-05-07 16:38 | 29.41383 | 29.39848 | 37086 ft | 478 kts | 81° |
| 2026-05-07 16:39 | 29.41279 | 29.47478 | 37086 ft | 478 kts | 81° |
| 2026-05-07 16:39 | 29.41177 | 29.55113 | 37096 ft | 479 kts | 81° |
| 2026-05-07 16:40 | 29.41073 | 29.62744 | 37090 ft | 479 kts | 81° |
| 2026-05-07 16:40 | 29.40979 | 29.69090 | 37087 ft | 479 kts | 81° |
| 2026-05-07 16:41 | 29.40838 | 29.77969 | 37079 ft | 479 kts | 81° |
| 2026-05-07 16:41 | 29.40736 | 29.84366 | 37098 ft | 479 kts | 82° |
| 2026-05-07 16:42 | 29.40614 | 29.91947 | 37088 ft | 478 kts | 82° |
| 2026-05-07 16:42 | 29.40486 | 29.99575 | 37079 ft | 478 kts | 82° |
| 2026-05-07 16:43 | 29.40354 | 30.07208 | 37079 ft | 478 kts | 82° |
| 2026-05-07 16:43 | 29.40217 | 30.14831 | 37094 ft | 478 kts | 82° |
| 2026-05-07 16:44 | 29.40076 | 30.22461 | 37081 ft | 478 kts | 82° |
| 2026-05-07 16:44 | 29.39926 | 30.30075 | 37075 ft | 478 kts | 83° |
| 2026-05-07 16:44 | 29.39578 | 30.33902 | 37070 ft | 488 kts | 94° |
| 2026-05-07 16:45 | 29.38689 | 30.37647 | 37074 ft | 498 kts | 104° |
| 2026-05-07 16:45 | 29.37226 | 30.41279 | 37086 ft | 506 kts | 115° |
| 2026-05-07 16:45 | 29.35219 | 30.44617 | 37084 ft | 512 kts | 127° |
| 2026-05-07 16:46 | 29.30305 | 30.50560 | 37078 ft | 513 kts | 130° |
| 2026-05-07 16:46 | 29.25357 | 30.56458 | 37073 ft | 513 kts | 130° |
| 2026-05-07 16:47 | 29.20416 | 30.62359 | 37068 ft | 513 kts | 130° |
| 2026-05-07 16:47 | 29.15463 | 30.68249 | 37068 ft | 513 kts | 130° |
| 2026-05-07 16:48 | 29.10509 | 30.74128 | 37068 ft | 513 kts | 130° |
| 2026-05-07 16:48 | 29.05550 | 30.80004 | 37068 ft | 513 kts | 130° |
| 2026-05-07 16:49 | 29.00586 | 30.85866 | 37059 ft | 513 kts | 131° |
| 2026-05-07 16:49 | 28.95648 | 30.91687 | 37066 ft | 513 kts | 131° |
| 2026-05-07 16:50 | 28.90688 | 30.97537 | 37085 ft | 512 kts | 131° |
| 2026-05-07 16:50 | 28.85744 | 31.03368 | 37087 ft | 510 kts | 131° |
| 2026-05-07 16:51 | 28.80804 | 31.09178 | 37085 ft | 509 kts | 131° |
| 2026-05-07 16:51 | 28.75877 | 31.14970 | 37082 ft | 509 kts | 131° |
| 2026-05-07 16:52 | 28.70944 | 31.20755 | 37080 ft | 508 kts | 131° |
| 2026-05-07 16:52 | 28.66118 | 31.26567 | 37083 ft | 507 kts | 129° |
| 2026-05-07 16:53 | 28.61435 | 31.32551 | 37075 ft | 506 kts | 128° |
| 2026-05-07 16:53 | 28.56774 | 31.38542 | 37073 ft | 505 kts | 129° |
| 2026-05-07 16:54 | 28.52064 | 31.44482 | 37068 ft | 505 kts | 129° |
| 2026-05-07 16:54 | 28.47325 | 31.50392 | 37067 ft | 505 kts | 129° |
| 2026-05-07 16:55 | 28.42600 | 31.56297 | 37078 ft | 504 kts | 130° |
| 2026-05-07 16:55 | 28.37887 | 31.62192 | 37072 ft | 504 kts | 130° |
| 2026-05-07 16:56 | 28.33209 | 31.68037 | 37066 ft | 503 kts | 130° |
| 2026-05-07 16:56 | 28.26138 | 31.76863 | 37039 ft | 504 kts | 130° |
| 2026-05-07 16:57 | 28.21404 | 31.82736 | 37056 ft | 504 kts | 130° |
| 2026-05-07 16:57 | 28.16680 | 31.88601 | 37055 ft | 504 kts | 130° |
| 2026-05-07 16:58 | 28.11954 | 31.94463 | 37053 ft | 504 kts | 130° |
| 2026-05-07 16:58 | 28.07234 | 32.00323 | 37055 ft | 504 kts | 130° |
| 2026-05-07 16:59 | 28.02800 | 32.06422 | 37054 ft | 499 kts | 118° |
| 2026-05-07 16:59 | 27.99444 | 32.13261 | 37054 ft | 497 kts | 116° |
| 2026-05-07 17:00 | 27.96138 | 32.20131 | 37032 ft | 497 kts | 116° |
| 2026-05-07 17:00 | 27.92826 | 32.26988 | 37029 ft | 497 kts | 116° |
| 2026-05-07 17:01 | 27.89528 | 32.33806 | 36985 ft | 497 kts | 116° |
| 2026-05-07 17:01 | 27.86208 | 32.40679 | 36973 ft | 498 kts | 116° |
| 2026-05-07 17:02 | 27.82878 | 32.47555 | 36974 ft | 499 kts | 116° |
| 2026-05-07 17:02 | 27.79539 | 32.54428 | 36971 ft | 499 kts | 116° |
| 2026-05-07 17:03 | 27.76190 | 32.61303 | 36975 ft | 500 kts | 116° |
| 2026-05-07 17:03 | 27.72840 | 32.68180 | 36985 ft | 499 kts | 117° |
| 2026-05-07 17:04 | 27.69493 | 32.75036 | 36980 ft | 499 kts | 117° |
| 2026-05-07 17:04 | 27.66139 | 32.81893 | 36977 ft | 498 kts | 117° |
| 2026-05-07 17:05 | 27.62793 | 32.88739 | 36971 ft | 498 kts | 117° |
| 2026-05-07 17:05 | 27.59461 | 32.95522 | 36974 ft | 497 kts | 117° |
| 2026-05-07 17:06 | 27.56110 | 33.02327 | 36974 ft | 496 kts | 117° |
| 2026-05-07 17:06 | 27.52765 | 33.09130 | 36970 ft | 496 kts | 117° |
| 2026-05-07 17:07 | 27.49421 | 33.15923 | 36972 ft | 495 kts | 117° |
| 2026-05-07 17:07 | 27.46085 | 33.22695 | 36974 ft | 494 kts | 118° |
| 2026-05-07 17:08 | 27.42751 | 33.29449 | 36971 ft | 493 kts | 118° |
| 2026-05-07 17:08 | 27.39436 | 33.36139 | 36970 ft | 492 kts | 118° |
| 2026-05-07 17:09 | 27.36099 | 33.42865 | 36960 ft | 492 kts | 118° |
| 2026-05-07 17:09 | 27.32766 | 33.49586 | 36934 ft | 492 kts | 118° |
| 2026-05-07 17:10 | 27.29430 | 33.56306 | 36933 ft | 492 kts | 118° |
| 2026-05-07 17:10 | 27.26078 | 33.63025 | 36936 ft | 493 kts | 118° |
| 2026-05-07 17:11 | 27.22716 | 33.69746 | 36943 ft | 492 kts | 118° |
| 2026-05-07 17:11 | 27.19363 | 33.76449 | 36940 ft | 492 kts | 118° |
| 2026-05-07 17:12 | 27.16444 | 33.83360 | 36939 ft | 489 kts | 110° |
| 2026-05-07 17:12 | 27.13931 | 33.90460 | 36938 ft | 489 kts | 110° |
| 2026-05-07 17:13 | 27.11425 | 33.97508 | 36935 ft | 489 kts | 111° |
| 2026-05-07 17:13 | 27.08901 | 34.04581 | 36935 ft | 488 kts | 110° |
| 2026-05-07 17:14 | 27.06380 | 34.11652 | 36924 ft | 488 kts | 111° |
| 2026-05-07 17:14 | 27.03851 | 34.18715 | 36920 ft | 487 kts | 111° |
| 2026-05-07 17:15 | 27.01319 | 34.25760 | 36920 ft | 487 kts | 111° |
| 2026-05-07 17:15 | 26.98792 | 34.32795 | 36923 ft | 486 kts | 111° |
| 2026-05-07 17:16 | 26.96268 | 34.39819 | 36925 ft | 485 kts | 111° |
| 2026-05-07 17:16 | 26.93744 | 34.46832 | 36915 ft | 485 kts | 111° |
| 2026-05-07 17:17 | 26.91230 | 34.53792 | 36916 ft | 484 kts | 112° |
| 2026-05-07 17:17 | 26.88702 | 34.60779 | 36913 ft | 484 kts | 112° |
| 2026-05-07 17:18 | 26.86173 | 34.67761 | 36915 ft | 483 kts | 112° |
| 2026-05-07 17:18 | 26.83639 | 34.74737 | 36910 ft | 483 kts | 113° |
| 2026-05-07 17:19 | 26.81111 | 34.81700 | 36916 ft | 482 kts | 113° |
| 2026-05-07 17:19 | 26.78577 | 34.88652 | 36918 ft | 482 kts | 113° |
| 2026-05-07 17:20 | 26.76044 | 34.95595 | 36914 ft | 482 kts | 113° |
| 2026-05-07 17:20 | 26.73524 | 35.02486 | 36908 ft | 481 kts | 114° |
| 2026-05-07 17:21 | 26.70989 | 35.09417 | 36909 ft | 481 kts | 114° |
| 2026-05-07 17:21 | 26.68452 | 35.16338 | 36910 ft | 481 kts | 114° |
| 2026-05-07 17:22 | 26.65910 | 35.23251 | 36910 ft | 481 kts | 114° |
| 2026-05-07 17:22 | 26.63367 | 35.30169 | 36903 ft | 480 kts | 115° |
| 2026-05-07 17:23 | 26.60823 | 35.37069 | 36903 ft | 480 kts | 115° |
| 2026-05-07 17:23 | 26.58271 | 35.43973 | 36905 ft | 480 kts | 115° |
| 2026-05-07 17:24 | 26.55718 | 35.50870 | 36899 ft | 480 kts | 116° |
| 2026-05-07 17:24 | 26.53133 | 35.57690 | 36900 ft | 480 kts | 116° |
| 2026-05-07 17:25 | 26.50491 | 35.64539 | 36904 ft | 480 kts | 117° |
| 2026-05-07 17:25 | 26.47853 | 35.71380 | 36907 ft | 480 kts | 116° |
| 2026-05-07 17:26 | 26.45230 | 35.78219 | 36865 ft | 480 kts | 118° |
| 2026-05-07 17:26 | 26.42605 | 35.85065 | 36875 ft | 480 kts | 118° |
| 2026-05-07 17:27 | 26.39971 | 35.91917 | 36885 ft | 481 kts | 118° |
| 2026-05-07 17:27 | 26.37344 | 35.98771 | 36890 ft | 481 kts | 118° |
| 2026-05-07 17:28 | 26.34702 | 36.05630 | 36897 ft | 481 kts | 118° |
| 2026-05-07 17:28 | 26.32047 | 36.12487 | 36900 ft | 481 kts | 118° |
| 2026-05-07 17:29 | 26.29409 | 36.19293 | 36902 ft | 481 kts | 118° |
| 2026-05-07 17:29 | 26.26754 | 36.26137 | 36880 ft | 481 kts | 119° |
| 2026-05-07 17:30 | 26.24095 | 36.32982 | 36895 ft | 481 kts | 119° |
| 2026-05-07 17:30 | 26.21432 | 36.39820 | 36901 ft | 481 kts | 119° |
| 2026-05-07 17:31 | 26.19039 | 36.46790 | 36905 ft | 488 kts | 108° |
| 2026-05-07 17:31 | 26.18496 | 36.54382 | 36887 ft | 500 kts | 88° |
| 2026-05-07 17:32 | 26.19142 | 36.60792 | 36894 ft | 501 kts | 87° |
| 2026-05-07 17:32 | 26.19920 | 36.68501 | 36923 ft | 501 kts | 87° |
| 2026-05-07 17:33 | 26.20689 | 36.76217 | 36912 ft | 501 kts | 88° |
| 2026-05-07 17:33 | 26.21457 | 36.83926 | 36909 ft | 501 kts | 88° |
| 2026-05-07 17:34 | 26.22214 | 36.91600 | 36912 ft | 501 kts | 88° |
| 2026-05-07 17:34 | 26.22965 | 36.99334 | 36891 ft | 502 kts | 88° |
| 2026-05-07 17:35 | 26.23718 | 37.07067 | 36891 ft | 503 kts | 89° |
| 2026-05-07 17:35 | 26.24477 | 37.14822 | 36909 ft | 504 kts | 89° |
| 2026-05-07 17:36 | 26.25228 | 37.22578 | 36923 ft | 504 kts | 89° |
| 2026-05-07 17:36 | 26.25963 | 37.30307 | 36944 ft | 505 kts | 90° |
| 2026-05-07 17:37 | 26.26704 | 37.38103 | 36944 ft | 506 kts | 90° |
| 2026-05-07 17:37 | 26.27449 | 37.45905 | 36937 ft | 506 kts | 90° |
| 2026-05-07 17:38 | 26.28191 | 37.53717 | 36917 ft | 507 kts | 90° |
| 2026-05-07 17:38 | 26.28914 | 37.61545 | 36913 ft | 508 kts | 90° |
| 2026-05-07 17:39 | 26.29634 | 37.69393 | 36917 ft | 509 kts | 90° |
| 2026-05-07 17:39 | 26.30370 | 37.77254 | 36885 ft | 511 kts | 90° |
| 2026-05-07 17:40 | 26.31108 | 37.85145 | 36889 ft | 513 kts | 90° |
| 2026-05-07 17:40 | 26.31827 | 37.93007 | 36921 ft | 513 kts | 90° |
| 2026-05-07 17:41 | 26.32549 | 38.00914 | 36881 ft | 513 kts | 90° |
| 2026-05-07 17:41 | 26.33271 | 38.08835 | 36909 ft | 514 kts | 90° |
| 2026-05-07 17:42 | 26.33983 | 38.16764 | 36919 ft | 514 kts | 91° |
| 2026-05-07 17:42 | 26.34686 | 38.24695 | 36901 ft | 514 kts | 91° |
| 2026-05-07 17:43 | 26.35390 | 38.32612 | 36920 ft | 513 kts | 91° |
| 2026-05-07 17:43 | 26.36090 | 38.40536 | 36937 ft | 513 kts | 91° |
| 2026-05-07 17:44 | 26.36790 | 38.48447 | 36951 ft | 513 kts | 91° |
| 2026-05-07 17:44 | 26.37476 | 38.56349 | 36957 ft | 511 kts | 91° |
| 2026-05-07 17:45 | 26.38152 | 38.64243 | 36953 ft | 511 kts | 91° |
| 2026-05-07 17:45 | 26.38816 | 38.72083 | 36931 ft | 511 kts | 91° |
| 2026-05-07 17:46 | 26.39488 | 38.79974 | 36942 ft | 511 kts | 91° |
| 2026-05-07 17:46 | 26.40164 | 38.87865 | 36952 ft | 511 kts | 91° |
| 2026-05-07 17:47 | 26.40835 | 38.95769 | 36936 ft | 511 kts | 92° |
| 2026-05-07 17:47 | 26.41499 | 39.03683 | 36943 ft | 512 kts | 92° |
| 2026-05-07 17:48 | 26.42150 | 39.11548 | 36973 ft | 512 kts | 92° |
| 2026-05-07 17:48 | 26.42799 | 39.19477 | 36945 ft | 513 kts | 92° |
| 2026-05-07 17:49 | 26.43452 | 39.27418 | 36940 ft | 514 kts | 92° |
| 2026-05-07 17:49 | 26.43949 | 39.35353 | 36921 ft | 512 kts | 95° |
| 2026-05-07 17:50 | 26.44288 | 39.43288 | 36929 ft | 512 kts | 95° |
| 2026-05-07 17:50 | 26.44631 | 39.51246 | 36939 ft | 514 kts | 95° |
| 2026-05-07 17:51 | 26.45020 | 39.59210 | 36911 ft | 514 kts | 95° |
| 2026-05-07 17:51 | 26.45423 | 39.67187 | 36940 ft | 515 kts | 95° |
| 2026-05-07 17:52 | 26.45816 | 39.75118 | 36971 ft | 515 kts | 95° |
| 2026-05-07 17:52 | 26.46191 | 39.83099 | 36952 ft | 515 kts | 95° |
| 2026-05-07 17:53 | 26.46559 | 39.91084 | 36956 ft | 515 kts | 95° |
| 2026-05-07 17:53 | 26.46922 | 39.99077 | 36965 ft | 515 kts | 95° |
| 2026-05-07 17:54 | 26.47293 | 40.07078 | 36956 ft | 516 kts | 95° |
| 2026-05-07 17:54 | 26.47666 | 40.15093 | 36952 ft | 517 kts | 95° |
| 2026-05-07 17:55 | 26.48030 | 40.23065 | 36951 ft | 518 kts | 95° |
| 2026-05-07 17:55 | 26.48382 | 40.31088 | 36949 ft | 518 kts | 95° |
| 2026-05-07 17:56 | 26.48731 | 40.39129 | 36946 ft | 519 kts | 95° |
| 2026-05-07 17:56 | 26.49081 | 40.47184 | 36950 ft | 519 kts | 95° |
| 2026-05-07 17:57 | 26.49361 | 40.53861 | 36938 ft | 519 kts | 96° |
| 2026-05-07 17:57 | 26.49757 | 40.63195 | 36947 ft | 520 kts | 95° |
| 2026-05-07 17:58 | 26.50048 | 40.70204 | 36947 ft | 520 kts | 96° |
| 2026-05-07 17:58 | 26.50375 | 40.78230 | 36949 ft | 520 kts | 96° |
| 2026-05-07 17:59 | 26.50701 | 40.86297 | 36960 ft | 520 kts | 96° |
| 2026-05-07 17:59 | 26.51024 | 40.94362 | 36939 ft | 520 kts | 96° |
| 2026-05-07 18:00 | 26.51336 | 41.02434 | 36942 ft | 520 kts | 96° |
| 2026-05-07 18:00 | 26.51015 | 41.10383 | 36948 ft | 510 kts | 104° |
| 2026-05-07 18:01 | 26.50458 | 41.18286 | 36936 ft | 510 kts | 104° |
| 2026-05-07 18:01 | 26.49897 | 41.26190 | 36938 ft | 511 kts | 104° |
| 2026-05-07 18:02 | 26.49050 | 41.38053 | 36905 ft | 511 kts | 105° |
| 2026-05-07 18:03 | 26.48479 | 41.45917 | 36907 ft | 512 kts | 105° |
| 2026-05-07 18:03 | 26.47896 | 41.53842 | 36910 ft | 512 kts | 105° |
| 2026-05-07 18:04 | 26.47314 | 41.61776 | 36879 ft | 512 kts | 105° |
| 2026-05-07 18:04 | 26.46736 | 41.69708 | 36949 ft | 513 kts | 105° |
| 2026-05-07 18:05 | 26.46147 | 41.77645 | 36899 ft | 512 kts | 106° |
| 2026-05-07 18:05 | 26.45555 | 41.85564 | 36913 ft | 512 kts | 106° |
| 2026-05-07 18:06 | 26.44963 | 41.93489 | 36921 ft | 512 kts | 106° |
| 2026-05-07 18:06 | 26.44365 | 42.01354 | 36906 ft | 512 kts | 105° |
| 2026-05-07 18:07 | 26.43762 | 42.09267 | 36921 ft | 512 kts | 105° |
| 2026-05-07 18:07 | 26.43152 | 42.17176 | 36935 ft | 511 kts | 106° |
| 2026-05-07 18:08 | 26.42535 | 42.25083 | 36928 ft | 511 kts | 105° |
| 2026-05-07 18:08 | 26.41916 | 42.32982 | 36947 ft | 511 kts | 105° |
| 2026-05-07 18:09 | 26.41290 | 42.40894 | 36910 ft | 511 kts | 105° |
| 2026-05-07 18:09 | 26.40665 | 42.48778 | 36942 ft | 509 kts | 105° |
| 2026-05-07 18:10 | 26.40050 | 42.56593 | 36947 ft | 509 kts | 105° |
| 2026-05-07 18:10 | 26.39418 | 42.64446 | 36951 ft | 508 kts | 105° |
| 2026-05-07 18:11 | 26.38785 | 42.72297 | 36953 ft | 508 kts | 105° |
| 2026-05-07 18:11 | 26.38150 | 42.80129 | 36952 ft | 507 kts | 105° |
| 2026-05-07 18:12 | 26.37499 | 42.87957 | 36949 ft | 507 kts | 105° |
| 2026-05-07 18:12 | 26.36851 | 42.95786 | 36954 ft | 507 kts | 105° |
| 2026-05-07 18:13 | 26.36203 | 43.03616 | 36944 ft | 507 kts | 105° |
| 2026-05-07 18:13 | 26.35557 | 43.11393 | 36939 ft | 507 kts | 105° |
| 2026-05-07 18:14 | 26.34898 | 43.19227 | 36937 ft | 507 kts | 105° |
| 2026-05-07 18:14 | 26.34227 | 43.27052 | 36955 ft | 507 kts | 105° |
| 2026-05-07 18:15 | 26.33556 | 43.34889 | 36944 ft | 508 kts | 105° |
| 2026-05-07 18:15 | 26.32888 | 43.42741 | 36944 ft | 508 kts | 105° |
| 2026-05-07 18:16 | 26.32209 | 43.50582 | 36936 ft | 508 kts | 105° |
| 2026-05-07 18:16 | 26.31526 | 43.58382 | 36949 ft | 508 kts | 105° |
| 2026-05-07 18:17 | 26.30836 | 43.66228 | 36940 ft | 508 kts | 105° |
| 2026-05-07 18:17 | 26.30153 | 43.74061 | 36950 ft | 508 kts | 105° |
| 2026-05-07 18:18 | 26.29831 | 43.81988 | 36954 ft | 516 kts | 98° |
| 2026-05-07 18:18 | 26.29905 | 43.89991 | 36948 ft | 516 kts | 98° |
| 2026-05-07 18:19 | 26.29976 | 43.97987 | 36968 ft | 516 kts | 98° |
| 2026-05-07 18:19 | 26.30035 | 44.05994 | 36962 ft | 516 kts | 98° |
| 2026-05-07 18:20 | 26.30087 | 44.13997 | 36968 ft | 516 kts | 98° |
| 2026-05-07 18:20 | 26.30136 | 44.22000 | 36976 ft | 517 kts | 98° |
| 2026-05-07 18:21 | 26.30188 | 44.29963 | 36965 ft | 517 kts | 97° |
| 2026-05-07 18:21 | 26.30235 | 44.37979 | 36974 ft | 517 kts | 97° |
| 2026-05-07 18:22 | 26.30273 | 44.45993 | 36969 ft | 517 kts | 97° |
| 2026-05-07 18:22 | 26.31090 | 44.54062 | 37006 ft | 532 kts | 80° |
| 2026-05-07 18:23 | 26.33578 | 44.61891 | 36973 ft | 538 kts | 73° |
| 2026-05-07 18:23 | 26.36205 | 44.69697 | 36987 ft | 538 kts | 73° |
| 2026-05-07 18:24 | 26.38793 | 44.77461 | 37001 ft | 538 kts | 74° |
| 2026-05-07 18:24 | 26.41394 | 44.85281 | 37019 ft | 538 kts | 74° |
| 2026-05-07 18:25 | 26.43559 | 44.91796 | 37010 ft | 538 kts | 74° |
| 2026-05-07 18:25 | 26.46159 | 44.99631 | 37008 ft | 538 kts | 74° |
| 2026-05-07 18:26 | 26.48755 | 45.07481 | 37024 ft | 538 kts | 73° |
| 2026-05-07 18:26 | 26.51334 | 45.15275 | 37029 ft | 538 kts | 73° |
| 2026-05-07 18:27 | 26.53928 | 45.23106 | 37023 ft | 537 kts | 73° |
| 2026-05-07 18:27 | 26.56510 | 45.30940 | 37032 ft | 537 kts | 73° |
| 2026-05-07 18:28 | 26.59083 | 45.38781 | 37020 ft | 537 kts | 73° |
| 2026-05-07 18:28 | 26.61654 | 45.46615 | 37030 ft | 536 kts | 74° |
| 2026-05-07 18:29 | 26.64216 | 45.54448 | 37027 ft | 536 kts | 74° |
| 2026-05-07 18:29 | 26.66756 | 45.62220 | 37026 ft | 535 kts | 74° |
| 2026-05-07 18:30 | 26.69313 | 45.70044 | 37029 ft | 535 kts | 74° |
| 2026-05-07 18:30 | 26.71859 | 45.77865 | 37029 ft | 535 kts | 74° |
| 2026-05-07 18:31 | 26.74394 | 45.85692 | 37026 ft | 535 kts | 74° |
| 2026-05-07 18:31 | 26.76912 | 45.93469 | 37021 ft | 535 kts | 74° |
| 2026-05-07 18:32 | 26.79446 | 46.01298 | 37019 ft | 534 kts | 74° |
| 2026-05-07 18:32 | 26.81972 | 46.09129 | 37021 ft | 535 kts | 74° |
| 2026-05-07 18:33 | 26.84492 | 46.16969 | 37014 ft | 535 kts | 74° |
| 2026-05-07 18:33 | 26.87008 | 46.24807 | 37012 ft | 535 kts | 74° |
| 2026-05-07 18:34 | 26.89522 | 46.32654 | 37021 ft | 535 kts | 74° |
| 2026-05-07 18:34 | 26.91675 | 46.40540 | 37009 ft | 528 kts | 85° |
| 2026-05-07 18:35 | 26.92520 | 46.48650 | 37011 ft | 524 kts | 90° |
| 2026-05-07 18:35 | 26.93273 | 46.56776 | 37003 ft | 524 kts | 90° |
| 2026-05-07 18:36 | 26.94033 | 46.64881 | 37014 ft | 523 kts | 90° |
| 2026-05-07 18:36 | 26.94787 | 46.72990 | 37025 ft | 522 kts | 90° |
| 2026-05-07 18:37 | 26.95526 | 46.81086 | 37021 ft | 522 kts | 90° |
| 2026-05-07 18:37 | 26.96265 | 46.89187 | 37020 ft | 522 kts | 90° |
| 2026-05-07 18:38 | 26.96998 | 46.97283 | 37019 ft | 522 kts | 90° |
| 2026-05-07 18:38 | 26.97724 | 47.05331 | 37018 ft | 522 kts | 90° |
| 2026-05-07 18:39 | 26.98457 | 47.13424 | 37010 ft | 522 kts | 90° |
| 2026-05-07 18:39 | 26.99174 | 47.21529 | 36997 ft | 522 kts | 90° |
| 2026-05-07 18:40 | 26.99888 | 47.29638 | 36979 ft | 522 kts | 90° |
| 2026-05-07 18:40 | 27.00599 | 47.37736 | 36993 ft | 521 kts | 90° |
| 2026-05-07 18:41 | 27.01304 | 47.45822 | 36995 ft | 521 kts | 90° |
| 2026-05-07 18:41 | 27.02003 | 47.53901 | 36998 ft | 520 kts | 90° |
| 2026-05-07 18:42 | 27.02707 | 47.61993 | 36995 ft | 520 kts | 90° |
| 2026-05-07 18:42 | 27.03393 | 47.70013 | 36994 ft | 520 kts | 90° |
| 2026-05-07 18:43 | 27.04073 | 47.78086 | 36988 ft | 520 kts | 90° |
| 2026-05-07 18:43 | 27.04750 | 47.86160 | 36979 ft | 519 kts | 90° |
| 2026-05-07 18:44 | 27.05423 | 47.94233 | 36982 ft | 519 kts | 90° |
| 2026-05-07 18:44 | 27.06007 | 48.02297 | 36967 ft | 518 kts | 92° |
| 2026-05-07 18:45 | 27.06363 | 48.10354 | 36958 ft | 516 kts | 93° |
| 2026-05-07 18:45 | 27.06670 | 48.18394 | 36971 ft | 515 kts | 93° |
| 2026-05-07 18:46 | 27.07028 | 48.26377 | 36969 ft | 515 kts | 92° |
| 2026-05-07 18:46 | 27.07417 | 48.34395 | 36971 ft | 514 kts | 92° |
| 2026-05-07 18:47 | 27.07799 | 48.42405 | 36964 ft | 513 kts | 92° |
| 2026-05-07 18:47 | 27.08167 | 48.50401 | 36960 ft | 513 kts | 92° |
| 2026-05-07 18:48 | 27.08525 | 48.58405 | 36950 ft | 513 kts | 92° |
| 2026-05-07 18:48 | 27.08876 | 48.66404 | 36946 ft | 513 kts | 92° |
| 2026-05-07 18:49 | 27.09231 | 48.74402 | 36939 ft | 513 kts | 92° |
| 2026-05-07 18:49 | 27.09581 | 48.82418 | 36932 ft | 513 kts | 92° |
| 2026-05-07 18:50 | 27.09744 | 48.90406 | 36934 ft | 508 kts | 99° |
| 2026-05-07 18:50 | 27.09376 | 48.98278 | 36934 ft | 508 kts | 98° |
| 2026-05-07 18:51 | 27.09016 | 49.06203 | 36937 ft | 508 kts | 98° |
| 2026-05-07 18:51 | 27.08652 | 49.14120 | 36927 ft | 508 kts | 98° |
| 2026-05-07 18:52 | 27.08281 | 49.22042 | 36927 ft | 508 kts | 98° |
| 2026-05-07 18:52 | 27.07904 | 49.29958 | 36922 ft | 508 kts | 98° |
| 2026-05-07 18:53 | 27.07519 | 49.37875 | 36918 ft | 508 kts | 98° |
| 2026-05-07 18:53 | 27.07136 | 49.45807 | 36915 ft | 509 kts | 98° |
| 2026-05-07 18:54 | 27.06748 | 49.53734 | 36903 ft | 509 kts | 98° |
| 2026-05-07 18:54 | 27.06355 | 49.61616 | 36906 ft | 510 kts | 98° |
| 2026-05-07 18:55 | 27.05962 | 49.69557 | 36901 ft | 510 kts | 98° |
| 2026-05-07 18:55 | 27.05570 | 49.77510 | 36902 ft | 511 kts | 98° |
| 2026-05-07 18:56 | 27.05160 | 49.85465 | 36903 ft | 511 kts | 98° |
| 2026-05-07 18:56 | 27.04742 | 49.93423 | 36906 ft | 511 kts | 98° |
| 2026-05-07 18:57 | 27.04430 | 50.01397 | 36898 ft | 512 kts | 95° |
| 2026-05-07 18:57 | 27.04514 | 50.09401 | 36920 ft | 513 kts | 93° |
| 2026-05-07 18:58 | 27.04729 | 50.17410 | 36920 ft | 513 kts | 93° |
| 2026-05-07 18:58 | 27.04861 | 50.25398 | 36916 ft | 511 kts | 94° |
| 2026-05-07 18:59 | 27.04868 | 50.33309 | 36909 ft | 508 kts | 99° |
| 2026-05-07 18:59 | 27.03528 | 50.40948 | 36907 ft | 492 kts | 116° |
| 2026-05-07 19:00 | 27.00924 | 50.47979 | 36895 ft | 488 kts | 120° |
| 2026-05-07 19:00 | 26.98264 | 50.54992 | 36877 ft | 489 kts | 120° |
| 2026-05-07 19:01 | 26.95603 | 50.62017 | 36881 ft | 489 kts | 120° |
| 2026-05-07 19:01 | 26.92933 | 50.69028 | 36883 ft | 490 kts | 120° |
| 2026-05-07 19:02 | 26.90252 | 50.76043 | 36885 ft | 490 kts | 120° |
| 2026-05-07 19:02 | 26.87586 | 50.83024 | 36881 ft | 490 kts | 120° |
| 2026-05-07 19:03 | 26.84906 | 50.90044 | 36868 ft | 490 kts | 120° |
| 2026-05-07 19:03 | 26.82211 | 50.97066 | 36871 ft | 490 kts | 120° |
| 2026-05-07 19:04 | 26.79528 | 51.04082 | 36880 ft | 490 kts | 119° |
| 2026-05-07 19:04 | 26.76880 | 51.11121 | 36877 ft | 492 kts | 118° |
| 2026-05-07 19:05 | 26.74510 | 51.18318 | 36876 ft | 494 kts | 115° |
| 2026-05-07 19:05 | 26.72300 | 51.25623 | 36868 ft | 494 kts | 114° |
| 2026-05-07 19:06 | 26.70045 | 51.32873 | 36875 ft | 493 kts | 115° |
| 2026-05-07 19:06 | 26.66552 | 51.43628 | 36869 ft | 493 kts | 116° |
| 2026-05-07 19:07 | 26.64208 | 51.50830 | 36867 ft | 493 kts | 116° |
| 2026-05-07 19:07 | 26.61886 | 51.58051 | 36856 ft | 493 kts | 115° |
| 2026-05-07 19:08 | 26.59573 | 51.65254 | 36858 ft | 493 kts | 115° |
| 2026-05-07 19:08 | 26.57249 | 51.72455 | 36860 ft | 492 kts | 115° |
| 2026-05-07 19:09 | 26.54934 | 51.79617 | 36859 ft | 492 kts | 115° |
| 2026-05-07 19:09 | 26.52605 | 51.86806 | 36859 ft | 492 kts | 115° |
| 2026-05-07 19:10 | 26.50249 | 51.93982 | 36842 ft | 492 kts | 116° |
| 2026-05-07 19:10 | 26.47865 | 52.01127 | 36854 ft | 491 kts | 116° |
| 2026-05-07 19:11 | 26.45475 | 52.08258 | 36854 ft | 490 kts | 116° |
| 2026-05-07 19:11 | 26.43099 | 52.15356 | 36854 ft | 490 kts | 116° |
| 2026-05-07 19:12 | 26.40703 | 52.22533 | 36855 ft | 490 kts | 116° |
| 2026-05-07 19:12 | 26.38313 | 52.29655 | 36846 ft | 490 kts | 116° |
| 2026-05-07 19:13 | 26.35917 | 52.36775 | 36840 ft | 490 kts | 115° |
| 2026-05-07 19:13 | 26.33436 | 52.43796 | 36844 ft | 488 kts | 118° |
| 2026-05-07 19:14 | 26.30727 | 52.50732 | 36849 ft | 487 kts | 119° |
| 2026-05-07 19:14 | 26.27992 | 52.57641 | 36843 ft | 488 kts | 118° |
| 2026-05-07 19:15 | 26.25294 | 52.64591 | 36850 ft | 488 kts | 118° |
| 2026-05-07 19:15 | 26.22632 | 52.71545 | 36842 ft | 488 kts | 118° |
| 2026-05-07 19:16 | 26.20430 | 52.77324 | 36841 ft | 488 kts | 118° |
| 2026-05-07 19:16 | 26.17775 | 52.84274 | 36843 ft | 487 kts | 118° |
| 2026-05-07 19:17 | 26.15114 | 52.91215 | 36851 ft | 487 kts | 118° |
| 2026-05-07 19:17 | 26.12454 | 52.98147 | 36846 ft | 487 kts | 118° |
| 2026-05-07 19:18 | 26.09797 | 53.05032 | 36831 ft | 487 kts | 117° |
| 2026-05-07 19:18 | 26.07200 | 53.12006 | 36843 ft | 487 kts | 116° |
| 2026-05-07 19:19 | 26.04671 | 53.18997 | 36843 ft | 487 kts | 116° |
| 2026-05-07 19:19 | 26.02128 | 53.25989 | 36850 ft | 487 kts | 116° |
| 2026-05-07 19:20 | 25.99572 | 53.32915 | 36851 ft | 487 kts | 117° |
| 2026-05-07 19:20 | 25.96982 | 53.39879 | 36838 ft | 487 kts | 117° |
| 2026-05-07 19:21 | 25.94388 | 53.46849 | 36842 ft | 488 kts | 117° |
| 2026-05-07 19:21 | 25.91839 | 53.53847 | 36835 ft | 489 kts | 115° |
| 2026-05-07 19:22 | 25.89424 | 53.60919 | 36826 ft | 490 kts | 115° |
| 2026-05-07 19:22 | 25.88229 | 53.64468 | 36098 ft | 490 kts | 115° |
| 2026-05-07 19:22 | 25.87030 | 53.67997 | 34527 ft | 499 kts | 115° |
| 2026-05-07 19:23 | 25.85786 | 53.71624 | 32910 ft | 506 kts | 115° |
| 2026-05-07 19:23 | 25.84535 | 53.75253 | 31642 ft | 502 kts | 114° |
| 2026-05-07 19:23 | 25.83292 | 53.78848 | 30525 ft | 496 kts | 114° |
| 2026-05-07 19:23 | 25.82063 | 53.82395 | 29464 ft | 488 kts | 114° |
| 2026-05-07 19:24 | 25.80853 | 53.85875 | 28376 ft | 478 kts | 114° |
| 2026-05-07 19:24 | 25.79667 | 53.89278 | 27416 ft | 467 kts | 114° |
| 2026-05-07 19:24 | 25.78508 | 53.92598 | 26626 ft | 454 kts | 114° |
| 2026-05-07 19:24 | 25.77397 | 53.95780 | 26298 ft | 431 kts | 114° |
| 2026-05-07 19:25 | 25.76328 | 53.98841 | 25782 ft | 424 kts | 114° |
| 2026-05-07 19:25 | 25.75270 | 54.01889 | 25258 ft | 422 kts | 112° |
| 2026-05-07 19:25 | 25.74274 | 54.04943 | 24750 ft | 420 kts | 111° |
| 2026-05-07 19:25 | 25.73336 | 54.07997 | 24249 ft | 418 kts | 110° |
| 2026-05-07 19:26 | 25.72427 | 54.11054 | 23745 ft | 416 kts | 110° |
| 2026-05-07 19:26 | 25.71526 | 54.14100 | 23191 ft | 415 kts | 110° |
| 2026-05-07 19:26 | 25.70631 | 54.17090 | 22652 ft | 412 kts | 111° |
| 2026-05-07 19:26 | 25.69721 | 54.20086 | 22123 ft | 408 kts | 111° |
| 2026-05-07 19:27 | 25.68808 | 54.23060 | 21624 ft | 405 kts | 111° |
| 2026-05-07 19:27 | 25.67896 | 54.26004 | 21093 ft | 403 kts | 111° |
| 2026-05-07 19:27 | 25.66986 | 54.28931 | 20573 ft | 400 kts | 110° |
| 2026-05-07 19:27 | 25.66080 | 54.31840 | 20124 ft | 396 kts | 110° |
| 2026-05-07 19:28 | 25.65183 | 54.34720 | 19634 ft | 393 kts | 110° |
| 2026-05-07 19:28 | 25.64302 | 54.37556 | 19231 ft | 387 kts | 110° |
| 2026-05-07 19:28 | 25.63431 | 54.40370 | 18743 ft | 385 kts | 111° |
| 2026-05-07 19:28 | 25.62565 | 54.43164 | 18317 ft | 381 kts | 110° |
| 2026-05-07 19:29 | 25.61710 | 54.45921 | 17899 ft | 376 kts | 110° |
| 2026-05-07 19:29 | 25.60867 | 54.48623 | 17352 ft | 374 kts | 110° |
| 2026-05-07 19:29 | 25.60021 | 54.51342 | 16840 ft | 372 kts | 110° |
| 2026-05-07 19:29 | 25.59186 | 54.54030 | 16124 ft | 367 kts | 110° |
| 2026-05-07 19:30 | 25.58387 | 54.56689 | 15527 ft | 360 kts | 105° |
| 2026-05-07 19:30 | 25.58014 | 54.59393 | 15050 ft | 351 kts | 92° |
| 2026-05-07 19:30 | 25.58177 | 54.62058 | 14614 ft | 343 kts | 82° |
| 2026-05-07 19:30 | 25.58511 | 54.64641 | 14175 ft | 335 kts | 83° |
| 2026-05-07 19:31 | 25.58834 | 54.67170 | 13742 ft | 328 kts | 83° |
| 2026-05-07 19:31 | 25.59146 | 54.69648 | 13290 ft | 321 kts | 83° |
| 2026-05-07 19:31 | 25.59450 | 54.72068 | 12864 ft | 314 kts | 83° |
| 2026-05-07 19:31 | 25.59748 | 54.74424 | 12595 ft | 307 kts | 82° |
| 2026-05-07 19:32 | 25.60042 | 54.76733 | 12376 ft | 295 kts | 83° |
| 2026-05-07 19:32 | 25.60321 | 54.78948 | 12127 ft | 286 kts | 82° |
| 2026-05-07 19:32 | 25.60594 | 54.81109 | 11884 ft | 282 kts | 82° |
| 2026-05-07 19:32 | 25.60865 | 54.83262 | 11644 ft | 281 kts | 82° |
| 2026-05-07 19:33 | 25.61037 | 54.85407 | 11404 ft | 279 kts | 92° |
| 2026-05-07 19:33 | 25.60741 | 54.87517 | 11167 ft | 277 kts | 107° |
| 2026-05-07 19:33 | 25.60028 | 54.89473 | 10932 ft | 277 kts | 114° |
| 2026-05-07 19:33 | 25.59257 | 54.91423 | 10693 ft | 276 kts | 113° |
| 2026-05-07 19:34 | 25.58495 | 54.93378 | 10478 ft | 275 kts | 113° |
| 2026-05-07 19:34 | 25.57744 | 54.95324 | 10238 ft | 275 kts | 113° |
| 2026-05-07 19:34 | 25.56991 | 54.97268 | 10042 ft | 274 kts | 113° |
| 2026-05-07 19:34 | 25.56239 | 54.99203 | 9986 ft | 273 kts | 113° |
| 2026-05-07 19:35 | 25.55484 | 55.01142 | 9996 ft | 274 kts | 113° |
| 2026-05-07 19:35 | 25.54723 | 55.03086 | 9996 ft | 276 kts | 114° |
| 2026-05-07 19:35 | 25.53802 | 55.04948 | 9991 ft | 276 kts | 120° |
| 2026-05-07 19:35 | 25.52845 | 55.06789 | 9990 ft | 277 kts | 120° |
| 2026-05-07 19:36 | 25.51833 | 55.08741 | 9890 ft | 303 kts | 119° |
| 2026-05-07 19:36 | 25.50772 | 55.10790 | 9776 ft | 309 kts | 119° |
| 2026-05-07 19:36 | 25.49717 | 55.12868 | 9658 ft | 310 kts | 118° |
| 2026-05-07 19:36 | 25.48681 | 55.14965 | 9534 ft | 310 kts | 118° |
| 2026-05-07 19:37 | 25.47652 | 55.17047 | 9202 ft | 307 kts | 119° |
| 2026-05-07 19:37 | 25.46574 | 55.19077 | 8980 ft | 306 kts | 122° |
| 2026-05-07 19:37 | 25.45263 | 55.20938 | 8978 ft | 309 kts | 133° |
| 2026-05-07 19:37 | 25.43797 | 55.22687 | 8985 ft | 310 kts | 133° |
| 2026-05-07 19:38 | 25.42358 | 55.24423 | 8989 ft | 310 kts | 132° |
| 2026-05-07 19:38 | 25.40905 | 55.26189 | 8990 ft | 310 kts | 132° |
| 2026-05-07 19:38 | 25.39457 | 55.27959 | 8988 ft | 310 kts | 132° |
| 2026-05-07 19:38 | 25.38011 | 55.29735 | 8988 ft | 311 kts | 131° |
| 2026-05-07 19:39 | 25.36567 | 55.31512 | 8962 ft | 311 kts | 131° |
| 2026-05-07 19:39 | 25.35233 | 55.33389 | 8839 ft | 310 kts | 121° |
| 2026-05-07 19:39 | 25.34113 | 55.35424 | 8716 ft | 310 kts | 121° |
| 2026-05-07 19:39 | 25.32988 | 55.37453 | 8600 ft | 309 kts | 121° |
| 2026-05-07 19:40 | 25.31862 | 55.39473 | 8488 ft | 308 kts | 121° |
| 2026-05-07 19:40 | 25.30769 | 55.41432 | 8267 ft | 290 kts | 121° |
| 2026-05-07 19:40 | 25.29738 | 55.43280 | 8006 ft | 274 kts | 121° |
| 2026-05-07 19:40 | 25.28740 | 55.45070 | 7976 ft | 272 kts | 121° |
| 2026-05-07 19:41 | 25.27759 | 55.46832 | 7677 ft | 269 kts | 122° |
| 2026-05-07 19:41 | 25.26772 | 55.48600 | 7025 ft | 271 kts | 122° |
| 2026-05-07 19:41 | 25.25816 | 55.50315 | 6849 ft | 253 kts | 122° |
| 2026-05-07 19:41 | 25.24913 | 55.51938 | 6743 ft | 249 kts | 122° |
| 2026-05-07 19:42 | 25.24009 | 55.53567 | 6645 ft | 248 kts | 122° |
| 2026-05-07 19:42 | 25.23106 | 55.55190 | 6542 ft | 248 kts | 122° |
| 2026-05-07 19:42 | 25.22203 | 55.56808 | 6437 ft | 247 kts | 122° |
| 2026-05-07 19:42 | 25.21301 | 55.58423 | 6329 ft | 247 kts | 122° |
| 2026-05-07 19:43 | 25.20400 | 55.60035 | 6234 ft | 246 kts | 122° |
| 2026-05-07 19:43 | 25.19503 | 55.61646 | 6130 ft | 246 kts | 122° |
| 2026-05-07 19:43 | 25.18624 | 55.63227 | 6030 ft | 236 kts | 122° |
| 2026-05-07 19:43 | 25.17788 | 55.64731 | 5932 ft | 225 kts | 122° |
| 2026-05-07 19:44 | 25.16971 | 55.66198 | 5841 ft | 223 kts | 122° |
| 2026-05-07 19:44 | 25.16159 | 55.67656 | 5746 ft | 223 kts | 122° |
| 2026-05-07 19:44 | 25.15349 | 55.69110 | 5658 ft | 222 kts | 122° |
| 2026-05-07 19:44 | 25.14540 | 55.70560 | 5572 ft | 222 kts | 122° |
| 2026-05-07 19:45 | 25.13739 | 55.71996 | 5490 ft | 222 kts | 122° |
| 2026-05-07 19:45 | 25.12931 | 55.73447 | 5396 ft | 221 kts | 122° |
| 2026-05-07 19:45 | 25.12123 | 55.74892 | 5305 ft | 221 kts | 123° |
| 2026-05-07 19:45 | 25.11318 | 55.76334 | 5211 ft | 218 kts | 123° |
| 2026-05-07 19:46 | 25.10540 | 55.77729 | 5115 ft | 210 kts | 123° |
| 2026-05-07 19:46 | 25.09774 | 55.79102 | 5027 ft | 211 kts | 123° |
| 2026-05-07 19:46 | 25.08997 | 55.80500 | 5002 ft | 216 kts | 122° |
| 2026-05-07 19:46 | 25.08206 | 55.81931 | 5119 ft | 226 kts | 125° |
| 2026-05-07 19:47 | 25.07076 | 55.83063 | 4995 ft | 219 kts | 159° |
| 2026-05-07 19:47 | 25.05620 | 55.83341 | 4680 ft | 217 kts | 191° |
| 2026-05-07 19:47 | 25.04192 | 55.82791 | 4459 ft | 215 kts | 211° |
| 2026-05-07 19:47 | 25.03024 | 55.81763 | 4324 ft | 216 kts | 236° |
| 2026-05-07 19:48 | 25.02520 | 55.80297 | 4188 ft | 209 kts | 266° |
| 2026-05-07 19:48 | 25.02496 | 55.78690 | 4099 ft | 211 kts | 271° |
| 2026-05-07 19:48 | 25.02548 | 55.77071 | 4012 ft | 212 kts | 272° |
| 2026-05-07 19:48 | 25.02673 | 55.75463 | 4131 ft | 208 kts | 286° |
| 2026-05-07 19:49 | 25.03353 | 55.73995 | 4164 ft | 217 kts | 300° |
| 2026-05-07 19:49 | 25.04265 | 55.72672 | 4067 ft | 216 kts | 310° |
| 2026-05-07 19:49 | 25.05297 | 55.71467 | 4023 ft | 216 kts | 315° |
| 2026-05-07 19:49 | 25.06332 | 55.70270 | 4011 ft | 215 kts | 306° |
| 2026-05-07 19:50 | 25.07191 | 55.68923 | 4005 ft | 214 kts | 301° |
| 2026-05-07 19:50 | 25.07984 | 55.67528 | 4006 ft | 215 kts | 300° |
| 2026-05-07 19:50 | 25.08765 | 55.66127 | 4002 ft | 215 kts | 300° |
| 2026-05-07 19:50 | 25.09562 | 55.64697 | 3976 ft | 221 kts | 300° |
| 2026-05-07 19:51 | 25.10350 | 55.63285 | 3925 ft | 210 kts | 300° |
| 2026-05-07 19:51 | 25.11098 | 55.61946 | 3853 ft | 200 kts | 300° |
| 2026-05-07 19:51 | 25.11824 | 55.60643 | 3800 ft | 198 kts | 300° |
| 2026-05-07 19:51 | 25.12535 | 55.59366 | 3753 ft | 198 kts | 299° |
| 2026-05-07 19:52 | 25.13257 | 55.58071 | 3626 ft | 198 kts | 299° |
| 2026-05-07 19:52 | 25.13977 | 55.56780 | 3418 ft | 197 kts | 300° |
| 2026-05-07 19:52 | 25.14684 | 55.55509 | 3187 ft | 195 kts | 300° |
| 2026-05-07 19:52 | 25.15396 | 55.54232 | 2946 ft | 195 kts | 300° |
| 2026-05-07 19:53 | 25.16098 | 55.52971 | 2701 ft | 194 kts | 300° |
| 2026-05-07 19:53 | 25.16800 | 55.51709 | 2485 ft | 190 kts | 300° |
| 2026-05-07 19:53 | 25.17484 | 55.50480 | 2228 ft | 186 kts | 300° |
| 2026-05-07 19:53 | 25.18150 | 55.49284 | 1987 ft | 179 kts | 301° |
| 2026-05-07 19:54 | 25.18773 | 55.48163 | 1769 ft | 163 kts | 301° |
| 2026-05-07 19:54 | 25.19341 | 55.47141 | 1579 ft | 150 kts | 301° |
| 2026-05-07 19:54 | 25.19878 | 55.46176 | 1380 ft | 146 kts | 301° |
| 2026-05-07 19:54 | 25.20403 | 55.45230 | 1203 ft | 144 kts | 301° |
| 2026-05-07 19:55 | 25.20924 | 55.44292 | 1025 ft | 143 kts | 301° |
| 2026-05-07 19:55 | 25.21439 | 55.43369 | 863 ft | 144 kts | 301° |
| 2026-05-07 19:55 | 25.21964 | 55.42421 | 681 ft | 145 kts | 302° |
| 2026-05-07 19:55 | 25.22493 | 55.41469 | 519 ft | 146 kts | 302° |
| 2026-05-07 19:56 | 25.23021 | 55.40516 | 292 ft | 145 kts | 302° |
| 2026-05-07 19:56 | 25.23542 | 55.39573 | 104 ft | 144 kts | 302° |
| 2026-05-07 19:56 | 25.24046 | 55.38664 | 25 ft | 124 kts | 302° |
| 2026-05-07 19:56 | 25.24407 | 55.38018 | 25 ft | 74 kts | 301° |
| 2026-05-07 19:57 | 25.24595 | 55.37635 | 22 ft | 43 kts | 284° |
| 2026-05-07 19:57 | 25.24614 | 55.37392 | 22 ft | 14 kts | 272° |
| 2026-05-07 19:57 | 25.24615 | 55.37356 | 22 ft | 0 kts | 272° |
| 2026-05-07 19:58 | 25.24618 | 55.37301 | 22 ft | 15 kts | 275° |
| 2026-05-07 19:58 | 25.24680 | 55.37160 | 22 ft | 24 kts | 302° |
| 2026-05-07 19:58 | 25.24773 | 55.36996 | 23 ft | 26 kts | 302° |
| 2026-05-07 19:59 | 25.24856 | 55.36814 | 22 ft | 27 kts | 285° |
| 2026-05-07 19:59 | 25.24921 | 55.36613 | 22 ft | 29 kts | 301° |
| 2026-05-07 19:59 | 25.25027 | 55.36422 | 24 ft | 30 kts | 302° |
| 2026-05-07 19:59 | 25.25139 | 55.36226 | 22 ft | 30 kts | 302° |
| 2026-05-07 20:00 | 25.25252 | 55.36025 | 21 ft | 31 kts | 302° |
| 2026-05-07 20:00 | 25.25368 | 55.35819 | 21 ft | 32 kts | 302° |
| 2026-05-07 20:00 | 25.25486 | 55.35609 | 23 ft | 32 kts | 301° |
| 2026-05-07 20:00 | 25.25606 | 55.35397 | 21 ft | 33 kts | 302° |
| 2026-05-07 20:01 | 25.25727 | 55.35183 | 21 ft | 33 kts | 301° |
| 2026-05-07 20:01 | 25.25839 | 55.34975 | 21 ft | 30 kts | 301° |
| 2026-05-07 20:01 | 25.25868 | 55.34752 | 21 ft | 30 kts | 283° |
| 2026-05-07 20:01 | 25.25973 | 55.34554 | 21 ft | 30 kts | 302° |
| 2026-05-07 20:02 | 25.26062 | 55.34400 | 21 ft | 20 kts | 301° |
| 2026-05-07 20:02 | 25.26080 | 55.34341 | 21 ft | 3 kts | 204° |
| 2026-05-07 20:02 | 25.26060 | 55.34330 | 22 ft | 4 kts | 211° |
| 2026-05-07 20:02 | 25.26035 | 55.34313 | 21 ft | 4 kts | 212° |
| 2026-05-07 20:03 | 25.26015 | 55.34299 | 21 ft | 0 kts | 211° |
| 2026-05-07 20:03 | 25.26012 | 55.34297 | 21 ft | 0 kts | 211° |